createdAt,value
2023-05-24T00:00:46.582Z,2.80
2023-05-24T00:03:15.517Z,2.83
2023-05-24T00:05:46.794Z,2.37
2023-05-24T00:08:15.966Z,2.13
2023-05-24T00:10:43.893Z,2.80
2023-05-24T00:13:12.305Z,2.07
2023-05-24T00:15:40.175Z,2.47
2023-05-24T00:18:10.858Z,3.07
2023-05-24T00:20:41.843Z,3.30
2023-05-24T00:25:39.203Z,2.43
2023-05-24T00:28:06.913Z,2.90
2023-05-24T00:30:34.833Z,2.50
2023-05-24T00:33:02.606Z,2.53
2023-05-24T00:35:30.614Z,2.30
2023-05-24T00:37:58.439Z,2.37
2023-05-24T00:40:26.315Z,2.37
2023-05-24T00:42:55.622Z,2.70
2023-05-24T00:45:23.328Z,2.93
2023-05-24T00:47:51.158Z,3.07
2023-05-24T00:50:19.401Z,2.60
2023-05-24T00:52:47.685Z,2.80
2023-05-24T00:55:15.566Z,2.63
2023-05-24T00:57:43.928Z,3.10
2023-05-24T01:00:14.194Z,2.47
2023-05-24T01:02:42.523Z,2.97
2023-05-24T01:05:13.685Z,2.33
2023-05-24T01:07:47.054Z,3.30
2023-05-24T01:10:17.909Z,3.63
2023-05-24T01:12:52.804Z,2.40
2023-05-24T01:15:26.192Z,2.53
2023-05-24T01:18:01.866Z,3.07
2023-05-24T01:20:30.673Z,2.53
2023-05-24T01:23:20.965Z,3.17
2023-05-24T01:26:03.866Z,2.80
2023-05-24T01:28:33.225Z,2.67
2023-05-24T01:31:01.241Z,2.77
2023-05-24T01:33:29.274Z,2.77
2023-05-24T01:35:56.971Z,2.93
2023-05-24T01:38:24.766Z,3.07
2023-05-24T01:40:59.233Z,2.77
2023-05-24T01:43:30.432Z,2.60
2023-05-24T01:46:02.997Z,3.03
2023-05-24T01:48:34.642Z,2.90
2023-05-24T01:51:03.000Z,2.67
2023-05-24T01:53:34.172Z,2.93
2023-05-24T01:56:02.880Z,2.53
2023-05-24T01:58:31.204Z,2.47
2023-05-24T02:01:00.547Z,2.90
2023-05-24T02:03:28.261Z,3.40
2023-05-24T02:05:56.118Z,2.67
2023-05-24T02:08:24.961Z,3.00
2023-05-24T02:10:52.676Z,3.27
2023-05-24T02:13:20.872Z,3.07
2023-05-24T02:15:48.668Z,2.57
2023-05-24T02:18:18.843Z,3.07
2023-05-24T02:20:47.044Z,4.00
2023-05-24T02:23:14.850Z,3.00
2023-05-24T02:25:42.541Z,3.33
2023-05-24T02:28:10.429Z,3.13
2023-05-24T02:30:39.582Z,3.27
2023-05-24T02:33:07.441Z,3.30
2023-05-24T02:35:36.738Z,3.50
2023-05-24T02:38:06.660Z,2.60
2023-05-24T02:40:34.775Z,2.83
2023-05-24T02:43:02.627Z,2.97
2023-05-24T02:45:30.462Z,3.13
2023-05-24T02:47:58.224Z,2.60
2023-05-24T02:50:26.085Z,2.90
2023-05-24T02:52:55.329Z,3.57
2023-05-24T02:55:24.176Z,3.40
2023-05-24T02:57:52.798Z,3.97
2023-05-24T03:00:22.222Z,3.00
2023-05-24T03:02:51.148Z,3.33
2023-05-24T03:05:19.117Z,4.07
2023-05-24T03:07:47.190Z,3.00
2023-05-24T03:10:16.425Z,3.20
2023-05-24T03:12:44.154Z,3.13
2023-05-24T03:15:12.536Z,3.27
2023-05-24T03:17:40.254Z,2.83
2023-05-24T03:20:09.224Z,3.50
2023-05-24T03:22:37.002Z,4.03
2023-05-24T03:25:05.020Z,3.47
2023-05-24T03:27:34.291Z,3.43
2023-05-24T03:30:01.985Z,4.03
2023-05-24T03:32:29.830Z,3.77
2023-05-24T03:34:59.494Z,3.80
2023-05-24T03:37:27.226Z,4.10
2023-05-24T03:39:55.129Z,3.50
2023-05-24T03:42:22.852Z,4.03
2023-05-24T03:44:51.909Z,4.13
2023-05-24T03:47:19.845Z,3.73
2023-05-24T03:49:47.590Z,3.33
2023-05-24T03:52:15.411Z,4.00
2023-05-24T03:54:43.196Z,4.20
2023-05-24T03:57:10.881Z,4.60
2023-05-24T03:59:40.486Z,3.97
2023-05-24T04:02:10.719Z,4.87
2023-05-24T04:04:38.678Z,4.33
2023-05-24T04:07:07.918Z,4.53
2023-05-24T04:09:35.871Z,4.40
2023-05-24T04:12:03.655Z,3.97
2023-05-24T04:14:33.779Z,4.13
2023-05-24T04:17:04.061Z,4.10
2023-05-24T04:19:33.442Z,3.97
2023-05-24T04:22:01.171Z,3.90
2023-05-24T04:24:28.983Z,4.33
2023-05-24T04:26:58.273Z,5.57
2023-05-24T04:29:26.650Z,4.27
2023-05-24T04:31:56.047Z,3.70
2023-05-24T04:34:24.024Z,4.50
2023-05-24T04:36:53.453Z,4.80
2023-05-24T04:39:21.173Z,4.77
2023-05-24T04:41:51.185Z,5.20
2023-05-24T04:44:19.833Z,5.63
2023-05-24T04:46:47.735Z,7.67
2023-05-24T04:49:15.498Z,6.00
2023-05-24T04:51:43.461Z,4.37
2023-05-24T04:54:13.086Z,4.70
2023-05-24T04:56:42.953Z,5.10
2023-05-24T04:59:10.980Z,5.20
2023-05-24T05:01:38.792Z,5.13
2023-05-24T05:04:07.428Z,4.97
2023-05-24T05:06:38.774Z,5.57
2023-05-24T05:09:09.214Z,5.43
2023-05-24T05:11:39.026Z,5.33
2023-05-24T05:14:09.865Z,4.60
2023-05-24T05:16:38.649Z,5.27
2023-05-24T05:19:07.099Z,5.17
2023-05-24T05:21:35.200Z,6.23
2023-05-24T05:24:03.569Z,4.63
2023-05-24T05:27:13.847Z,5.30
2023-05-24T05:29:41.755Z,8.30
2023-05-24T05:33:05.816Z,5.70
2023-05-24T05:35:33.823Z,6.27
2023-05-24T05:38:01.976Z,6.23
2023-05-24T05:40:29.874Z,5.90
2023-05-24T05:42:59.326Z,6.13
2023-05-24T05:45:27.467Z,6.20
2023-05-24T05:47:55.502Z,5.47
2023-05-24T05:50:23.576Z,6.10
2023-05-24T05:54:33.992Z,6.53
2023-05-24T05:56:11.697Z,5.67
2023-05-24T05:58:56.651Z,5.13
2023-05-24T06:01:24.636Z,5.03
2023-05-24T06:03:52.772Z,5.23
2023-05-24T06:06:22.572Z,5.53
2023-05-24T06:08:50.508Z,4.87
2023-05-24T06:11:18.516Z,4.83
2023-05-24T06:13:48.935Z,4.70
2023-05-24T06:16:21.286Z,4.30
2023-05-24T06:19:01.527Z,4.80
2023-05-24T06:21:36.637Z,5.20
2023-05-24T06:24:04.706Z,5.23
2023-05-24T06:26:32.475Z,4.93
2023-05-24T06:29:01.778Z,5.17
2023-05-24T06:31:29.840Z,4.70
2023-05-24T06:34:03.715Z,4.57
2023-05-24T06:36:45.655Z,4.43
2023-05-24T06:39:14.117Z,4.73
2023-05-24T06:41:45.388Z,5.03
2023-05-24T06:44:16.443Z,4.97
2023-05-24T06:46:44.464Z,5.20
2023-05-24T06:49:13.327Z,5.67
2023-05-24T06:51:41.540Z,5.60
2023-05-24T06:54:09.726Z,4.77
2023-05-24T06:56:38.517Z,4.90
2023-05-24T06:59:06.942Z,5.67
2023-05-24T07:01:39.726Z,5.03
2023-05-24T07:04:12.715Z,5.27
2023-05-24T07:06:40.872Z,5.13
2023-05-24T07:09:10.397Z,4.90
2023-05-24T07:11:39.046Z,5.40
2023-05-24T07:14:07.711Z,5.07
2023-05-24T07:16:38.338Z,5.17
2023-05-24T07:19:07.464Z,5.40
2023-05-24T07:21:36.180Z,4.30
2023-05-24T07:24:05.195Z,4.77
2023-05-24T07:26:33.360Z,4.07
2023-05-24T07:29:02.042Z,4.03
2023-05-24T07:31:32.577Z,4.57
2023-05-24T07:34:02.011Z,4.33
2023-05-24T07:36:34.886Z,3.73
2023-05-24T07:39:04.965Z,4.00
2023-05-24T07:41:33.667Z,3.80
2023-05-24T07:44:02.210Z,4.27
2023-05-24T07:46:30.193Z,4.33
2023-05-24T07:48:58.234Z,4.07
2023-05-24T07:51:27.658Z,4.03
2023-05-24T07:53:56.069Z,3.97
2023-05-24T07:56:24.826Z,4.37
2023-05-24T07:58:53.892Z,4.20
2023-05-24T08:01:22.806Z,4.47
2023-05-24T08:03:51.007Z,4.57
2023-05-24T08:06:19.156Z,4.17
2023-05-24T08:08:49.081Z,4.63
2023-05-24T08:11:17.064Z,4.47
2023-05-24T08:13:45.557Z,4.67
2023-05-24T08:16:13.771Z,4.97
2023-05-24T08:18:42.045Z,5.13
2023-05-24T08:21:11.845Z,4.93
2023-05-24T08:23:39.735Z,4.90
2023-05-24T08:26:09.266Z,5.40
2023-05-24T08:28:37.275Z,5.17
2023-05-24T08:31:06.372Z,4.93
2023-05-24T08:33:34.815Z,4.30
2023-05-24T08:36:02.794Z,4.50
2023-05-24T08:38:30.935Z,4.93
2023-05-24T08:40:58.981Z,5.17
2023-05-24T08:43:29.180Z,4.57
2023-05-24T08:45:59.448Z,4.70
2023-05-24T08:48:27.541Z,4.10
2023-05-24T08:50:55.450Z,3.93
2023-05-24T08:53:23.824Z,4.90
2023-05-24T08:55:53.281Z,3.90
2023-05-24T08:58:21.299Z,3.40
2023-05-24T09:00:51.129Z,3.60
2023-05-24T09:03:19.905Z,4.00
2023-05-24T09:05:47.912Z,3.80
2023-05-24T09:08:18.226Z,4.90
2023-05-24T09:10:54.636Z,4.17
2023-05-24T09:13:24.353Z,4.00
2023-05-24T09:15:54.149Z,3.60
2023-05-24T09:18:22.511Z,3.70
2023-05-24T09:20:50.577Z,3.67
2023-05-24T09:23:19.040Z,3.70
2023-05-24T09:25:50.484Z,3.50
2023-05-24T09:28:19.676Z,3.83
2023-05-24T09:31:03.333Z,3.90
2023-05-24T09:33:36.717Z,4.30
2023-05-24T09:36:09.809Z,3.97
2023-05-24T09:38:38.336Z,4.53
2023-05-24T09:41:08.730Z,4.97
2023-05-24T09:43:47.799Z,4.40
2023-05-24T09:46:18.906Z,3.87
2023-05-24T09:48:58.914Z,4.13
2023-05-24T09:51:27.071Z,4.73
2023-05-24T09:53:58.193Z,4.20
2023-05-24T09:56:26.239Z,4.53
2023-05-24T09:58:55.239Z,5.07
2023-05-24T10:01:24.598Z,5.10
2023-05-24T10:03:57.977Z,4.93
2023-05-24T10:06:26.323Z,4.90
2023-05-24T10:08:55.850Z,5.10
2023-05-24T10:11:24.419Z,5.17
2023-05-24T10:13:52.720Z,5.13
2023-05-24T10:16:20.753Z,5.63
2023-05-24T10:18:48.804Z,5.03
2023-05-24T10:21:18.902Z,5.87
2023-05-24T10:23:47.413Z,5.60
2023-05-24T10:26:16.116Z,5.27
2023-05-24T10:28:45.822Z,5.27
2023-05-24T10:31:15.775Z,8.43
2023-05-24T10:33:44.694Z,5.63
2023-05-24T10:36:16.189Z,4.80
2023-05-24T10:38:47.673Z,4.20
2023-05-24T10:41:16.493Z,4.83
2023-05-24T10:43:53.452Z,4.93
2023-05-24T10:46:29.401Z,5.33
2023-05-24T10:49:00.937Z,4.43
2023-05-24T10:51:39.087Z,4.40
2023-05-24T10:54:16.570Z,5.07
2023-05-24T10:56:46.240Z,5.00
2023-05-24T10:59:24.972Z,5.57
2023-05-24T11:01:56.677Z,5.20
2023-05-24T11:04:25.363Z,5.57
2023-05-24T11:06:56.446Z,4.90
2023-05-24T11:09:27.708Z,4.97
2023-05-24T11:11:57.419Z,5.37
2023-05-24T11:14:26.032Z,5.43
2023-05-24T11:16:54.501Z,6.10
2023-05-24T11:19:23.600Z,4.87
2023-05-24T11:21:52.052Z,5.43
2023-05-24T11:24:20.653Z,5.37
2023-05-24T11:26:50.222Z,5.30
2023-05-24T11:29:21.197Z,7.77
2023-05-24T11:31:51.523Z,5.43
2023-05-24T11:34:20.009Z,5.33
2023-05-24T11:36:48.311Z,4.50
2023-05-24T11:39:16.741Z,4.30
2023-05-24T11:41:48.671Z,4.60
2023-05-24T11:44:20.051Z,4.47
2023-05-24T11:46:48.239Z,4.60
2023-05-24T11:49:16.840Z,4.67
2023-05-24T11:51:44.920Z,4.60
2023-05-24T11:54:13.510Z,4.00
2023-05-24T11:56:41.744Z,4.43
2023-05-24T11:59:16.540Z,4.70
2023-05-24T12:01:45.942Z,4.10
2023-05-24T12:04:14.114Z,4.67
2023-05-24T12:06:42.846Z,5.07
2023-05-24T12:09:13.573Z,5.27
2023-05-24T12:11:44.404Z,4.93
2023-05-24T12:14:18.776Z,4.83
2023-05-24T12:16:48.449Z,5.40
2023-05-24T12:19:32.225Z,4.97
2023-05-24T12:22:02.145Z,6.10
2023-05-24T12:27:08.008Z,5.30
2023-05-24T12:29:36.570Z,4.70
2023-05-24T12:32:12.108Z,5.00
2023-05-24T12:34:42.079Z,5.00
2023-05-24T12:37:10.163Z,4.90
2023-05-24T12:39:44.968Z,4.87
2023-05-24T12:42:13.372Z,4.93
2023-05-24T12:44:41.803Z,5.53
2023-05-24T12:47:11.925Z,4.43
2023-05-24T12:49:39.808Z,4.77
2023-05-24T12:52:07.624Z,5.67
2023-05-24T12:54:35.591Z,4.77
2023-05-24T12:57:03.649Z,5.10
2023-05-24T12:59:31.608Z,5.90
2023-05-24T13:01:59.497Z,5.20
2023-05-24T13:04:34.098Z,5.77
2023-05-24T13:07:14.038Z,5.80
2023-05-24T13:09:42.052Z,5.33
2023-05-24T13:12:11.010Z,5.93
2023-05-24T13:14:45.145Z,5.90
2023-05-24T13:17:13.196Z,5.20
2023-05-24T13:19:43.656Z,5.80
2023-05-24T13:22:12.501Z,5.70
2023-05-24T13:24:40.510Z,5.63
2023-05-24T13:27:08.393Z,5.13
2023-05-24T13:29:45.636Z,5.23
2023-05-24T13:32:21.181Z,4.77
2023-05-24T13:34:52.866Z,5.23
2023-05-24T13:37:21.140Z,5.47
2023-05-24T13:41:05.768Z,5.03
2023-05-24T13:47:10.444Z,4.80
2023-05-24T13:49:38.294Z,4.73
2023-05-24T13:52:51.082Z,5.53
2023-05-24T13:55:27.372Z,5.53
2023-05-24T13:58:01.863Z,5.73
2023-05-24T14:00:29.810Z,5.70
2023-05-24T14:02:58.061Z,5.63
2023-05-24T14:05:29.220Z,6.70
2023-05-24T14:07:57.993Z,5.60
2023-05-24T14:10:30.083Z,5.80
2023-05-24T14:13:16.213Z,5.33
2023-05-24T14:15:56.618Z,5.23
2023-05-24T14:18:24.456Z,5.60
2023-05-24T14:20:56.369Z,5.87
2023-05-24T14:23:24.177Z,5.60
2023-05-24T14:25:53.444Z,5.43
2023-05-24T14:28:24.400Z,5.07
2023-05-24T14:30:52.139Z,4.80
2023-05-24T14:33:19.994Z,4.63
2023-05-24T14:35:50.650Z,4.33
2023-05-24T14:38:29.419Z,4.70
2023-05-24T14:40:59.700Z,5.70
2023-05-24T14:43:27.577Z,5.40
2023-05-24T14:45:55.665Z,5.10
2023-05-24T14:48:23.463Z,5.37
2023-05-24T14:51:01.593Z,5.60
2023-05-24T14:53:32.695Z,4.73
2023-05-24T14:56:03.856Z,5.23
2023-05-24T14:58:31.674Z,5.43
2023-05-24T15:00:59.501Z,4.97
2023-05-24T15:03:27.429Z,5.10
2023-05-24T15:05:55.385Z,5.20
2023-05-24T15:08:23.202Z,5.70
2023-05-24T15:11:01.565Z,4.93
2023-05-24T15:13:31.129Z,4.60
2023-05-24T15:16:00.781Z,5.43
2023-05-24T15:18:29.033Z,4.87
2023-05-24T15:20:56.982Z,5.13
2023-05-24T15:23:25.319Z,5.23
2023-05-24T15:25:53.116Z,5.10
2023-05-24T15:28:26.250Z,4.83
2023-05-24T15:30:57.289Z,4.90
2023-05-24T15:33:30.261Z,4.97
2023-05-24T15:36:01.373Z,4.90
2023-05-24T15:38:29.446Z,4.90
2023-05-24T15:40:57.655Z,5.63
2023-05-24T15:44:12.283Z,6.50
2023-05-24T15:46:42.645Z,5.57
2023-05-24T15:49:16.331Z,4.33
2023-05-24T15:52:03.510Z,5.20
2023-05-24T15:54:32.206Z,4.60
2023-05-24T15:57:00.675Z,4.40
2023-05-24T15:59:36.852Z,4.47
2023-05-24T16:02:29.919Z,4.93
2023-05-24T16:05:21.196Z,4.50
2023-05-24T16:08:04.494Z,4.47
2023-05-24T16:10:36.385Z,4.73
2023-05-24T16:17:09.071Z,4.80
2023-05-24T16:19:59.003Z,4.40
2023-05-24T16:22:53.261Z,5.97
2023-05-24T16:25:37.066Z,5.13
2023-05-24T16:28:28.307Z,11.53
2023-05-24T16:31:12.439Z,4.60
2023-05-24T16:51:03.339Z,5.00
2023-05-24T16:54:14.926Z,7.33
2023-05-24T16:56:46.424Z,17.23
2023-05-24T16:59:14.839Z,15.43
2023-05-24T17:02:38.002Z,5.57
2023-05-24T17:09:21.781Z,5.50
2023-05-24T17:12:53.352Z,4.77
2023-05-24T17:25:27.467Z,5.60
2023-05-24T17:27:56.952Z,4.77
2023-05-24T17:45:38.706Z,8.93
2023-05-24T17:48:39.273Z,4.77
2023-05-24T18:42:03.495Z,6.43
2023-05-24T18:44:26.752Z,6.27
2023-05-24T18:47:19.206Z,6.47
2023-05-24T18:50:05.422Z,6.83
2023-05-24T18:55:25.842Z,6.43
2023-05-24T18:58:15.114Z,6.30
2023-05-24T19:01:48.946Z,8.30
2023-05-24T19:04:30.075Z,6.77
2023-05-24T19:07:22.532Z,6.33
2023-05-24T19:10:20.830Z,7.00
2023-05-24T19:13:25.632Z,6.70
2023-05-24T19:16:08.354Z,6.47
2023-05-24T19:18:36.849Z,7.63
2023-05-24T19:21:05.709Z,6.53
2023-05-24T19:23:33.890Z,6.60
2023-05-24T19:26:06.503Z,7.10
2023-05-24T19:28:44.362Z,7.00
2023-05-24T19:50:52.276Z,7.23
2023-05-24T20:50:38.173Z,7.13
2023-05-24T20:53:11.361Z,7.47
2023-05-24T20:55:43.530Z,6.53
2023-05-24T20:58:12.577Z,6.00
2023-05-24T21:00:43.604Z,6.00
2023-05-24T21:03:13.206Z,6.97
2023-05-24T21:05:45.079Z,7.07
2023-05-24T21:08:33.906Z,7.03
2023-05-24T21:11:04.835Z,7.30
2023-05-24T21:13:33.668Z,7.27
2023-05-24T21:16:06.872Z,7.43
2023-05-24T21:18:39.377Z,7.90
2023-05-24T21:21:08.476Z,7.07
2023-05-24T21:24:25.435Z,6.80
2023-05-24T21:26:59.380Z,6.70
2023-05-24T21:29:30.634Z,6.63
2023-05-24T21:31:59.371Z,6.83
2023-05-24T21:34:28.330Z,6.67
2023-05-24T21:37:14.177Z,7.13
2023-05-24T21:39:44.071Z,8.20
2023-05-24T21:42:16.305Z,6.90
2023-05-24T21:44:45.066Z,7.50
2023-05-24T21:47:14.188Z,7.47
2023-05-24T21:49:50.792Z,7.33
2023-05-24T21:52:22.860Z,7.00
2023-05-24T21:54:51.754Z,7.30
2023-05-24T21:57:28.941Z,7.83
2023-05-24T21:59:56.767Z,7.07
2023-05-24T22:02:29.484Z,7.60
2023-05-24T22:04:58.485Z,7.20
2023-05-24T22:07:27.003Z,7.77
2023-05-24T22:10:09.299Z,7.03
2023-05-24T22:12:39.363Z,7.50
2023-05-24T22:15:10.078Z,6.97
2023-05-24T22:17:41.462Z,6.80
2023-05-24T22:20:16.527Z,7.63
2023-05-24T22:22:48.995Z,8.10
2023-05-24T22:25:20.849Z,7.53
2023-05-24T22:27:57.303Z,7.23
2023-05-24T22:30:26.696Z,7.90
2023-05-24T22:32:56.826Z,7.70
2023-05-24T22:35:26.644Z,7.73
2023-05-24T22:38:03.026Z,7.80
2023-05-24T22:50:33.475Z,7.33
2023-05-24T22:53:05.193Z,8.10
2023-05-24T22:55:33.038Z,7.60
2023-05-24T22:58:01.798Z,8.07
2023-05-24T23:00:29.595Z,8.03
2023-05-24T23:02:57.343Z,6.80
2023-05-24T23:05:25.355Z,8.13
2023-05-24T23:07:55.059Z,8.20
2023-05-24T23:10:23.899Z,7.00
2023-05-24T23:12:51.727Z,7.30
2023-05-24T23:15:19.568Z,7.30
2023-05-24T23:17:48.200Z,7.97
2023-05-24T23:20:17.346Z,8.20
2023-05-24T23:22:46.741Z,8.47
2023-05-24T23:25:16.129Z,8.30
2023-05-24T23:27:44.965Z,8.97
2023-05-24T23:30:14.021Z,7.80
2023-05-24T23:32:42.267Z,8.50
2023-05-24T23:35:10.581Z,7.53
2023-05-24T23:37:38.860Z,7.30
2023-05-24T23:40:11.019Z,7.87
2023-05-24T23:42:52.397Z,7.93
2023-05-24T23:45:20.384Z,7.07
2023-05-24T23:47:48.497Z,8.40
2023-05-24T23:50:17.490Z,7.87
2023-05-24T23:52:46.832Z,8.00
2023-05-24T23:55:14.905Z,7.80
2023-05-24T23:57:43.081Z,7.53
